sensor_id;sensor_type;location;lat;lon;timestamp;temperature;humidity
26990;DHT22;14537;47.788;11.858;2023-01-24T00:01:17;-0.80;99.90
26990;DHT22;14537;47.788;11.858;2023-01-24T00:03:43;-0.80;99.90
26990;DHT22;14537;47.788;11.858;2023-01-24T00:06:09;-0.90;99.90
26990;DHT22;14537;47.788;11.858;2023-01-24T00:08:35;-0.80;99.90
26990;DHT22;14537;47.788;11.858;2023-01-24T00:11:06;-0.80;99.90
26990;DHT22;14537;47.788;11.858;2023-01-24T00:13:35;-0.80;99.90
26990;DHT22;14537;47.788;11.858;2023-01-24T00:16:09;-0.80;99.90
26990;DHT22;14537;47.788;11.858;2023-01-24T00:18:36;-0.80;99.90
26990;DHT22;14537;47.788;11.858;2023-01-24T00:21:04;-0.80;99.90
26990;DHT22;14537;47.788;11.858;2023-01-24T00:23:30;-0.80;99.90
26990;DHT22;14537;47.788;11.858;2023-01-24T00:25:58;-0.80;99.90
26990;DHT22;14537;47.788;11.858;2023-01-24T00:28:23;-0.80;99.90
26990;DHT22;14537;47.788;11.858;2023-01-24T00:30:49;-0.80;99.90
26990;DHT22;14537;47.788;11.858;2023-01-24T00:33:14;-0.80;99.90
26990;DHT22;14537;47.788;11.858;2023-01-24T00:35:40;-0.70;99.90
26990;DHT22;14537;47.788;11.858;2023-01-24T00:38:05;-0.80;99.90
26990;DHT22;14537;47.788;11.858;2023-01-24T00:40:31;-0.80;99.90
26990;DHT22;14537;47.788;11.858;2023-01-24T00:42:57;-0.80;99.90
26990;DHT22;14537;47.788;11.858;2023-01-24T00:45:23;-0.80;99.90
26990;DHT22;14537;47.788;11.858;2023-01-24T00:47:49;-0.80;99.90
26990;DHT22;14537;47.788;11.858;2023-01-24T00:50:14;-0.80;99.90
26990;DHT22;14537;47.788;11.858;2023-01-24T00:52:40;-0.80;99.90
26990;DHT22;14537;47.788;11.858;2023-01-24T00:55:06;-0.80;99.90
26990;DHT22;14537;47.788;11.858;2023-01-24T00:57:31;-0.80;99.90
26990;DHT22;14537;47.788;11.858;2023-01-24T00:59:58;-0.70;99.90
26990;DHT22;14537;47.788;11.858;2023-01-24T01:02:24;-0.70;99.90
26990;DHT22;14537;47.788;11.858;2023-01-24T01:04:50;-0.70;99.90
26990;DHT22;14537;47.788;11.858;2023-01-24T01:07:16;-0.70;99.90
26990;DHT22;14537;47.788;11.858;2023-01-24T01:09:42;-0.80;99.90
26990;DHT22;14537;47.788;11.858;2023-01-24T01:12:08;-0.70;99.90
26990;DHT22;14537;47.788;11.858;2023-01-24T01:14:34;-0.80;99.90
26990;DHT22;14537;47.788;11.858;2023-01-24T01:16:59;-0.80;99.90
26990;DHT22;14537;47.788;11.858;2023-01-24T01:19:25;-0.80;99.90
26990;DHT22;14537;47.788;11.858;2023-01-24T01:21:50;-0.80;99.90
26990;DHT22;14537;47.788;11.858;2023-01-24T01:24:16;-0.80;99.90
26990;DHT22;14537;47.788;11.858;2023-01-24T01:26:41;-0.80;99.90
26990;DHT22;14537;47.788;11.858;2023-01-24T01:29:07;-0.80;99.90
26990;DHT22;14537;47.788;11.858;2023-01-24T01:31:33;-0.80;99.90
26990;DHT22;14537;47.788;11.858;2023-01-24T01:33:58;-0.70;99.90
26990;DHT22;14537;47.788;11.858;2023-01-24T01:36:24;-0.80;99.90
26990;DHT22;14537;47.788;11.858;2023-01-24T01:38:49;-0.80;99.90
26990;DHT22;14537;47.788;11.858;2023-01-24T01:41:15;-0.80;99.90
26990;DHT22;14537;47.788;11.858;2023-01-24T01:43:41;-0.80;99.90
26990;DHT22;14537;47.788;11.858;2023-01-24T01:46:35;-0.80;99.90
26990;DHT22;14537;47.788;11.858;2023-01-24T01:49:05;-0.80;99.90
26990;DHT22;14537;47.788;11.858;2023-01-24T01:51:41;-0.80;99.90
26990;DHT22;14537;47.788;11.858;2023-01-24T01:54:13;-0.80;99.90
26990;DHT22;14537;47.788;11.858;2023-01-24T01:56:47;-0.70;99.90
26990;DHT22;14537;47.788;11.858;2023-01-24T01:59:20;-0.80;99.90
26990;DHT22;14537;47.788;11.858;2023-01-24T02:01:48;-0.70;99.90
26990;DHT22;14537;47.788;11.858;2023-01-24T02:04:19;-0.70;99.90
26990;DHT22;14537;47.788;11.858;2023-01-24T02:09:47;-0.80;99.90
26990;DHT22;14537;47.788;11.858;2023-01-24T02:12:19;-0.70;99.90
26990;DHT22;14537;47.788;11.858;2023-01-24T02:14:57;-0.70;99.90
26990;DHT22;14537;47.788;11.858;2023-01-24T02:17:42;-0.70;99.90
26990;DHT22;14537;47.788;11.858;2023-01-24T02:23:11;-0.70;99.90
26990;DHT22;14537;47.788;11.858;2023-01-24T02:25:42;-0.80;99.90
26990;DHT22;14537;47.788;11.858;2023-01-24T02:28:13;-0.80;99.90
26990;DHT22;14537;47.788;11.858;2023-01-24T02:30:39;-0.80;99.90
26990;DHT22;14537;47.788;11.858;2023-01-24T02:33:11;-0.80;99.90
26990;DHT22;14537;47.788;11.858;2023-01-24T02:35:37;-0.80;99.90
26990;DHT22;14537;47.788;11.858;2023-01-24T02:38:06;-0.80;99.90
26990;DHT22;14537;47.788;11.858;2023-01-24T02:40:36;-0.80;99.90
26990;DHT22;14537;47.788;11.858;2023-01-24T02:43:04;-0.80;99.90
26990;DHT22;14537;47.788;11.858;2023-01-24T02:45:31;-0.90;99.90
26990;DHT22;14537;47.788;11.858;2023-01-24T02:47:58;-0.80;99.90
26990;DHT22;14537;47.788;11.858;2023-01-24T02:50:26;-0.80;99.90
26990;DHT22;14537;47.788;11.858;2023-01-24T02:52:55;-0.80;99.90
26990;DHT22;14537;47.788;11.858;2023-01-24T02:58:41;-0.90;99.90
26990;DHT22;14537;47.788;11.858;2023-01-24T03:01:07;-0.90;99.90
26990;DHT22;14537;47.788;11.858;2023-01-24T03:03:32;-0.90;99.90
26990;DHT22;14537;47.788;11.858;2023-01-24T03:05:59;-0.90;99.90
26990;DHT22;14537;47.788;11.858;2023-01-24T03:08:28;-0.90;99.90
26990;DHT22;14537;47.788;11.858;2023-01-24T03:10:54;-0.90;99.90
26990;DHT22;14537;47.788;11.858;2023-01-24T03:13:20;-0.90;99.90
26990;DHT22;14537;47.788;11.858;2023-01-24T03:16:05;-0.90;99.90
26990;DHT22;14537;47.788;11.858;2023-01-24T03:18:50;-0.90;99.90
26990;DHT22;14537;47.788;11.858;2023-01-24T03:21:35;-0.90;99.90
26990;DHT22;14537;47.788;11.858;2023-01-24T03:24:19;-0.90;99.90
26990;DHT22;14537;47.788;11.858;2023-01-24T03:27:03;-0.90;99.90
26990;DHT22;14537;47.788;11.858;2023-01-24T03:29:47;-0.90;99.90
26990;DHT22;14537;47.788;11.858;2023-01-24T03:32:31;-0.90;99.90
26990;DHT22;14537;47.788;11.858;2023-01-24T03:35:16;-0.90;99.90
26990;DHT22;14537;47.788;11.858;2023-01-24T03:37:41;-0.90;99.90
26990;DHT22;14537;47.788;11.858;2023-01-24T03:40:25;-0.90;99.90
26990;DHT22;14537;47.788;11.858;2023-01-24T03:42:51;-0.90;99.90
26990;DHT22;14537;47.788;11.858;2023-01-24T03:45:20;-0.90;99.90
26990;DHT22;14537;47.788;11.858;2023-01-24T03:47:47;-0.90;99.90
26990;DHT22;14537;47.788;11.858;2023-01-24T03:53:12;-0.90;99.90
26990;DHT22;14537;47.788;11.858;2023-01-24T03:55:38;-0.90;99.90
26990;DHT22;14537;47.788;11.858;2023-01-24T03:58:05;-0.90;99.90
26990;DHT22;14537;47.788;11.858;2023-01-24T04:00:32;-0.90;99.90
26990;DHT22;14537;47.788;11.858;2023-01-24T04:02:58;-0.90;99.90
26990;DHT22;14537;47.788;11.858;2023-01-24T04:05:24;-0.90;99.90
26990;DHT22;14537;47.788;11.858;2023-01-24T04:07:49;-1.00;99.90
26990;DHT22;14537;47.788;11.858;2023-01-24T04:10:15;-1.00;99.90
26990;DHT22;14537;47.788;11.858;2023-01-24T04:12:42;-1.00;99.90
26990;DHT22;14537;47.788;11.858;2023-01-24T04:15:09;-1.00;99.90
26990;DHT22;14537;47.788;11.858;2023-01-24T04:17:38;-1.00;99.90
26990;DHT22;14537;47.788;11.858;2023-01-24T04:20:04;-1.00;99.90
26990;DHT22;14537;47.788;11.858;2023-01-24T04:22:30;-1.00;99.90
26990;DHT22;14537;47.788;11.858;2023-01-24T04:24:56;-1.00;99.90
26990;DHT22;14537;47.788;11.858;2023-01-24T04:27:21;-1.00;99.90
26990;DHT22;14537;47.788;11.858;2023-01-24T04:29:51;-1.00;99.90
26990;DHT22;14537;47.788;11.858;2023-01-24T04:32:16;-1.00;99.90
26990;DHT22;14537;47.788;11.858;2023-01-24T04:34:42;-1.00;99.90
26990;DHT22;14537;47.788;11.858;2023-01-24T04:37:08;-1.00;99.90
26990;DHT22;14537;47.788;11.858;2023-01-24T04:39:33;-1.00;99.90
26990;DHT22;14537;47.788;11.858;2023-01-24T04:41:59;-1.00;99.90
26990;DHT22;14537;47.788;11.858;2023-01-24T04:44:24;-1.00;99.90
26990;DHT22;14537;47.788;11.858;2023-01-24T04:46:53;-1.10;99.90
26990;DHT22;14537;47.788;11.858;2023-01-24T04:49:19;-1.00;99.90
26990;DHT22;14537;47.788;11.858;2023-01-24T04:51:47;-1.10;99.90
26990;DHT22;14537;47.788;11.858;2023-01-24T04:54:13;-1.00;99.90
26990;DHT22;14537;47.788;11.858;2023-01-24T04:56:38;-1.00;99.90
26990;DHT22;14537;47.788;11.858;2023-01-24T04:59:14;-1.00;99.90
26990;DHT22;14537;47.788;11.858;2023-01-24T05:01:53;-1.00;99.90
26990;DHT22;14537;47.788;11.858;2023-01-24T05:04:21;-1.00;99.90
26990;DHT22;14537;47.788;11.858;2023-01-24T05:06:46;-1.00;99.90
26990;DHT22;14537;47.788;11.858;2023-01-24T05:09:12;-1.00;99.90
26990;DHT22;14537;47.788;11.858;2023-01-24T05:11:37;-1.00;99.90
26990;DHT22;14537;47.788;11.858;2023-01-24T05:14:03;-1.00;99.90
26990;DHT22;14537;47.788;11.858;2023-01-24T05:16:29;-1.10;99.90
26990;DHT22;14537;47.788;11.858;2023-01-24T05:18:55;-1.00;99.90
26990;DHT22;14537;47.788;11.858;2023-01-24T05:21:20;-1.10;99.90
26990;DHT22;14537;47.788;11.858;2023-01-24T05:23:50;-1.10;99.90
26990;DHT22;14537;47.788;11.858;2023-01-24T05:26:17;-1.00;99.90
26990;DHT22;14537;47.788;11.858;2023-01-24T05:28:43;-1.10;99.90
26990;DHT22;14537;47.788;11.858;2023-01-24T05:31:09;-1.10;99.90
26990;DHT22;14537;47.788;11.858;2023-01-24T05:33:35;-1.10;99.90
26990;DHT22;14537;47.788;11.858;2023-01-24T05:36:31;-1.10;99.90
26990;DHT22;14537;47.788;11.858;2023-01-24T05:38:56;-1.10;99.90
26990;DHT22;14537;47.788;11.858;2023-01-24T05:41:22;-1.10;99.90
26990;DHT22;14537;47.788;11.858;2023-01-24T05:43:48;-1.10;99.90
26990;DHT22;14537;47.788;11.858;2023-01-24T05:46:21;-1.10;99.90
26990;DHT22;14537;47.788;11.858;2023-01-24T05:48:48;-1.20;99.90
26990;DHT22;14537;47.788;11.858;2023-01-24T05:51:16;-1.10;99.90
26990;DHT22;14537;47.788;11.858;2023-01-24T05:53:43;-1.10;99.90
26990;DHT22;14537;47.788;11.858;2023-01-24T05:56:12;-1.10;99.90
26990;DHT22;14537;47.788;11.858;2023-01-24T05:58:39;-1.10;99.90
26990;DHT22;14537;47.788;11.858;2023-01-24T06:01:31;-1.10;99.90
26990;DHT22;14537;47.788;11.858;2023-01-24T06:03:56;-1.20;99.90
26990;DHT22;14537;47.788;11.858;2023-01-24T06:06:24;-1.20;99.90
26990;DHT22;14537;47.788;11.858;2023-01-24T06:08:50;-1.20;99.90
26990;DHT22;14537;47.788;11.858;2023-01-24T06:11:21;-1.20;99.90
26990;DHT22;14537;47.788;11.858;2023-01-24T06:13:48;-1.20;99.90
26990;DHT22;14537;47.788;11.858;2023-01-24T06:16:16;-1.20;99.90
26990;DHT22;14537;47.788;11.858;2023-01-24T06:18:42;-1.20;99.90
26990;DHT22;14537;47.788;11.858;2023-01-24T06:24:33;-1.20;99.90
26990;DHT22;14537;47.788;11.858;2023-01-24T06:26:59;-1.10;99.90
26990;DHT22;14537;47.788;11.858;2023-01-24T06:29:38;-1.10;99.90
26990;DHT22;14537;47.788;11.858;2023-01-24T06:32:37;-1.10;99.90
26990;DHT22;14537;47.788;11.858;2023-01-24T06:38:04;-1.10;99.90
26990;DHT22;14537;47.788;11.858;2023-01-24T06:40:29;-1.10;99.90
26990;DHT22;14537;47.788;11.858;2023-01-24T06:43:02;-1.10;99.90
26990;DHT22;14537;47.788;11.858;2023-01-24T06:45:28;-1.10;99.90
26990;DHT22;14537;47.788;11.858;2023-01-24T06:47:53;-1.10;99.90
26990;DHT22;14537;47.788;11.858;2023-01-24T06:50:21;-1.10;99.90
26990;DHT22;14537;47.788;11.858;2023-01-24T06:52:48;-1.00;99.90
26990;DHT22;14537;47.788;11.858;2023-01-24T06:55:14;-1.10;99.90
26990;DHT22;14537;47.788;11.858;2023-01-24T06:57:40;-1.00;99.90
26990;DHT22;14537;47.788;11.858;2023-01-24T07:00:07;-1.10;99.90
26990;DHT22;14537;47.788;11.858;2023-01-24T07:02:33;-1.00;99.90
26990;DHT22;14537;47.788;11.858;2023-01-24T07:04:58;-1.10;99.90
26990;DHT22;14537;47.788;11.858;2023-01-24T07:07:24;-1.00;99.90
26990;DHT22;14537;47.788;11.858;2023-01-24T07:09:49;-1.00;99.90
26990;DHT22;14537;47.788;11.858;2023-01-24T07:12:20;-0.90;99.90
26990;DHT22;14537;47.788;11.858;2023-01-24T07:14:46;-0.90;99.90
26990;DHT22;14537;47.788;11.858;2023-01-24T07:17:12;-0.90;99.90
26990;DHT22;14537;47.788;11.858;2023-01-24T07:19:50;-0.90;99.90
26990;DHT22;14537;47.788;11.858;2023-01-24T07:22:24;-0.90;99.90
26990;DHT22;14537;47.788;11.858;2023-01-24T07:24:57;-0.90;99.90
26990;DHT22;14537;47.788;11.858;2023-01-24T07:27:23;-0.80;99.90
26990;DHT22;14537;47.788;11.858;2023-01-24T07:29:48;-0.80;99.90
26990;DHT22;14537;47.788;11.858;2023-01-24T07:32:14;-0.80;99.90
26990;DHT22;14537;47.788;11.858;2023-01-24T07:34:39;-0.80;99.90
26990;DHT22;14537;47.788;11.858;2023-01-24T07:37:06;-0.80;99.90
26990;DHT22;14537;47.788;11.858;2023-01-24T07:39:32;-0.80;99.90
26990;DHT22;14537;47.788;11.858;2023-01-24T07:41:58;-0.70;99.90
26990;DHT22;14537;47.788;11.858;2023-01-24T07:44:24;-0.70;99.90
26990;DHT22;14537;47.788;11.858;2023-01-24T07:46:52;-0.70;99.90
26990;DHT22;14537;47.788;11.858;2023-01-24T07:49:17;-0.70;99.90
26990;DHT22;14537;47.788;11.858;2023-01-24T07:51:43;-0.60;99.90
26990;DHT22;14537;47.788;11.858;2023-01-24T07:54:11;-0.60;99.90
26990;DHT22;14537;47.788;11.858;2023-01-24T07:56:37;-0.60;99.90
26990;DHT22;14537;47.788;11.858;2023-01-24T07:59:02;-0.60;99.90
26990;DHT22;14537;47.788;11.858;2023-01-24T08:01:28;-0.60;99.90
26990;DHT22;14537;47.788;11.858;2023-01-24T08:03:55;-0.50;99.90
26990;DHT22;14537;47.788;11.858;2023-01-24T08:06:23;-0.60;99.90
26990;DHT22;14537;47.788;11.858;2023-01-24T08:08:49;-0.60;99.90
26990;DHT22;14537;47.788;11.858;2023-01-24T08:11:15;-0.50;99.90
26990;DHT22;14537;47.788;11.858;2023-01-24T08:13:51;-0.50;99.90
26990;DHT22;14537;47.788;11.858;2023-01-24T08:16:17;-0.50;99.90
26990;DHT22;14537;47.788;11.858;2023-01-24T08:18:43;-0.50;99.90
26990;DHT22;14537;47.788;11.858;2023-01-24T08:21:11;-0.50;99.90
26990;DHT22;14537;47.788;11.858;2023-01-24T08:23:37;-0.50;99.90
26990;DHT22;14537;47.788;11.858;2023-01-24T08:26:03;-0.40;99.90
26990;DHT22;14537;47.788;11.858;2023-01-24T08:28:38;-0.40;99.90
26990;DHT22;14537;47.788;11.858;2023-01-24T08:31:03;-0.40;99.90
26990;DHT22;14537;47.788;11.858;2023-01-24T08:33:29;-0.40;99.90
26990;DHT22;14537;47.788;11.858;2023-01-24T08:35:55;-0.30;99.90
26990;DHT22;14537;47.788;11.858;2023-01-24T08:38:20;-0.20;99.90
26990;DHT22;14537;47.788;11.858;2023-01-24T08:41:02;-0.10;99.90
26990;DHT22;14537;47.788;11.858;2023-01-24T08:43:28;0.00;99.90
26990;DHT22;14537;47.788;11.858;2023-01-24T08:45:54;0.10;99.90
26990;DHT22;14537;47.788;11.858;2023-01-24T08:48:20;0.10;99.90
26990;DHT22;14537;47.788;11.858;2023-01-24T08:50:46;0.10;99.90
26990;DHT22;14537;47.788;11.858;2023-01-24T08:53:12;0.20;99.90
26990;DHT22;14537;47.788;11.858;2023-01-24T08:55:37;0.20;99.90
26990;DHT22;14537;47.788;11.858;2023-01-24T08:58:04;0.20;99.90
26990;DHT22;14537;47.788;11.858;2023-01-24T09:00:36;0.30;99.90
26990;DHT22;14537;47.788;11.858;2023-01-24T09:03:02;0.40;99.90
26990;DHT22;14537;47.788;11.858;2023-01-24T09:05:29;0.40;99.90
26990;DHT22;14537;47.788;11.858;2023-01-24T09:07:55;0.30;99.90
26990;DHT22;14537;47.788;11.858;2023-01-24T09:10:21;0.40;99.90
26990;DHT22;14537;47.788;11.858;2023-01-24T09:12:46;0.50;99.90
26990;DHT22;14537;47.788;11.858;2023-01-24T09:15:12;0.60;99.90
26990;DHT22;14537;47.788;11.858;2023-01-24T09:17:38;0.60;99.90
26990;DHT22;14537;47.788;11.858;2023-01-24T09:20:08;0.70;99.90
26990;DHT22;14537;47.788;11.858;2023-01-24T09:22:34;0.70;99.90
26990;DHT22;14537;47.788;11.858;2023-01-24T09:25:00;0.80;99.90
26990;DHT22;14537;47.788;11.858;2023-01-24T09:27:25;0.80;99.90
26990;DHT22;14537;47.788;11.858;2023-01-24T09:29:51;0.90;99.90
26990;DHT22;14537;47.788;11.858;2023-01-24T09:32:16;0.90;99.90
26990;DHT22;14537;47.788;11.858;2023-01-24T09:34:54;0.90;99.90
26990;DHT22;14537;47.788;11.858;2023-01-24T09:37:21;1.00;99.90
26990;DHT22;14537;47.788;11.858;2023-01-24T09:39:47;0.90;99.90
26990;DHT22;14537;47.788;11.858;2023-01-24T09:47:51;1.10;99.90
26990;DHT22;14537;47.788;11.858;2023-01-24T09:50:21;1.10;99.90
26990;DHT22;14537;47.788;11.858;2023-01-24T09:52:48;1.20;99.90
26990;DHT22;14537;47.788;11.858;2023-01-24T10:01:09;1.30;99.90
26990;DHT22;14537;47.788;11.858;2023-01-24T10:03:37;1.40;99.90
26990;DHT22;14537;47.788;11.858;2023-01-24T10:06:17;1.40;99.90
26990;DHT22;14537;47.788;11.858;2023-01-24T10:12:10;1.50;99.90
26990;DHT22;14537;47.788;11.858;2023-01-24T10:22:45;1.30;99.90
26990;DHT22;14537;47.788;11.858;2023-01-24T10:25:25;1.20;99.90
26990;DHT22;14537;47.788;11.858;2023-01-24T10:27:53;1.20;99.90
26990;DHT22;14537;47.788;11.858;2023-01-24T10:30:28;1.10;99.90
26990;DHT22;14537;47.788;11.858;2023-01-24T10:32:59;1.10;99.90
26990;DHT22;14537;47.788;11.858;2023-01-24T10:35:30;1.10;99.90
26990;DHT22;14537;47.788;11.858;2023-01-24T10:38:03;1.10;99.90
26990;DHT22;14537;47.788;11.858;2023-01-24T10:40:30;1.20;99.90
26990;DHT22;14537;47.788;11.858;2023-01-24T10:42:55;1.10;99.90
26990;DHT22;14537;47.788;11.858;2023-01-24T10:50:41;1.50;99.90
26990;DHT22;14537;47.788;11.858;2023-01-24T10:53:24;1.50;99.90
26990;DHT22;14537;47.788;11.858;2023-01-24T10:56:01;1.70;99.90
26990;DHT22;14537;47.788;11.858;2023-01-24T11:01:00;1.50;99.90
26990;DHT22;14537;47.788;11.858;2023-01-24T11:03:31;1.60;99.90
26990;DHT22;14537;47.788;11.858;2023-01-24T11:06:00;1.60;99.90
26990;DHT22;14537;47.788;11.858;2023-01-24T11:08:33;1.60;99.90
26990;DHT22;14537;47.788;11.858;2023-01-24T11:11:20;1.70;99.90
26990;DHT22;14537;47.788;11.858;2023-01-24T11:13:47;1.80;99.90
26990;DHT22;14537;47.788;11.858;2023-01-24T11:16:21;1.80;99.90
26990;DHT22;14537;47.788;11.858;2023-01-24T11:18:51;1.90;99.90
26990;DHT22;14537;47.788;11.858;2023-01-24T11:21:24;1.90;99.90
26990;DHT22;14537;47.788;11.858;2023-01-24T11:24:13;2.00;99.90
26990;DHT22;14537;47.788;11.858;2023-01-24T11:27:15;2.10;99.90
26990;DHT22;14537;47.788;11.858;2023-01-24T11:29:41;2.10;99.90
26990;DHT22;14537;47.788;11.858;2023-01-24T11:42:59;1.90;99.90
26990;DHT22;14537;47.788;11.858;2023-01-24T11:53:55;1.90;99.90
26990;DHT22;14537;47.788;11.858;2023-01-24T11:56:32;1.90;99.90
26990;DHT22;14537;47.788;11.858;2023-01-24T11:59:29;1.80;99.90
26990;DHT22;14537;47.788;11.858;2023-01-24T12:13:15;1.80;99.90
26990;DHT22;14537;47.788;11.858;2023-01-24T12:15:52;1.80;99.90
26990;DHT22;14537;47.788;11.858;2023-01-24T12:18:48;1.80;99.90
26990;DHT22;14537;47.788;11.858;2023-01-24T12:21:15;1.90;99.90
26990;DHT22;14537;47.788;11.858;2023-01-24T12:24:00;1.90;99.90
26990;DHT22;14537;47.788;11.858;2023-01-24T12:26:44;1.90;99.90
26990;DHT22;14537;47.788;11.858;2023-01-24T12:29:39;2.00;99.90
26990;DHT22;14537;47.788;11.858;2023-01-24T12:32:23;2.00;99.90
26990;DHT22;14537;47.788;11.858;2023-01-24T12:35:10;2.00;99.90
26990;DHT22;14537;47.788;11.858;2023-01-24T12:48:19;1.80;99.90
26990;DHT22;14537;47.788;11.858;2023-01-24T12:59:15;1.70;99.90
26990;DHT22;14537;47.788;11.858;2023-01-24T13:07:40;1.50;99.90
26990;DHT22;14537;47.788;11.858;2023-01-24T13:10:26;1.50;99.90
26990;DHT22;14537;47.788;11.858;2023-01-24T13:12:54;1.60;99.90
26990;DHT22;14537;47.788;11.858;2023-01-24T13:15:41;1.60;99.90
26990;DHT22;14537;47.788;11.858;2023-01-24T13:29:25;1.90;99.90
26990;DHT22;14537;47.788;11.858;2023-01-24T13:32:14;2.00;99.90
26990;DHT22;14537;47.788;11.858;2023-01-24T13:34:47;2.00;99.90
26990;DHT22;14537;47.788;11.858;2023-01-24T13:37:24;1.90;99.90
26990;DHT22;14537;47.788;11.858;2023-01-24T13:42:39;1.70;99.90
26990;DHT22;14537;47.788;11.858;2023-01-24T13:47:53;1.70;99.90
26990;DHT22;14537;47.788;11.858;2023-01-24T13:50:29;1.70;99.90
26990;DHT22;14537;47.788;11.858;2023-01-24T13:53:00;1.80;99.90
26990;DHT22;14537;47.788;11.858;2023-01-24T13:56:18;1.70;99.90
26990;DHT22;14537;47.788;11.858;2023-01-24T13:58:42;1.70;99.90
26990;DHT22;14537;47.788;11.858;2023-01-24T14:04:45;1.60;99.90
26990;DHT22;14537;47.788;11.858;2023-01-24T14:07:30;1.60;99.90
26990;DHT22;14537;47.788;11.858;2023-01-24T14:10:15;1.50;99.90
26990;DHT22;14537;47.788;11.858;2023-01-24T14:12:54;1.50;99.90
26990;DHT22;14537;47.788;11.858;2023-01-24T14:15:40;1.40;99.90
26990;DHT22;14537;47.788;11.858;2023-01-24T14:21:16;1.40;99.90
26990;DHT22;14537;47.788;11.858;2023-01-24T14:24:06;1.40;99.90
26990;DHT22;14537;47.788;11.858;2023-01-24T14:26:41;1.30;99.90
26990;DHT22;14537;47.788;11.858;2023-01-24T14:29:16;1.30;99.90
26990;DHT22;14537;47.788;11.858;2023-01-24T14:31:54;1.30;99.90
26990;DHT22;14537;47.788;11.858;2023-01-24T14:34:30;1.20;99.90
26990;DHT22;14537;47.788;11.858;2023-01-24T14:37:10;1.10;99.90
26990;DHT22;14537;47.788;11.858;2023-01-24T14:39:43;1.00;99.90
26990;DHT22;14537;47.788;11.858;2023-01-24T14:42:13;1.00;99.90
26990;DHT22;14537;47.788;11.858;2023-01-24T14:45:00;1.00;99.90
26990;DHT22;14537;47.788;11.858;2023-01-24T14:47:30;0.90;99.90
26990;DHT22;14537;47.788;11.858;2023-01-24T14:49:58;0.80;99.90
26990;DHT22;14537;47.788;11.858;2023-01-24T14:52:32;0.80;99.90
26990;DHT22;14537;47.788;11.858;2023-01-24T14:55:14;0.80;99.90
26990;DHT22;14537;47.788;11.858;2023-01-24T15:01:00;0.70;99.90
26990;DHT22;14537;47.788;11.858;2023-01-24T15:03:32;0.70;99.90
26990;DHT22;14537;47.788;11.858;2023-01-24T15:09:17;0.70;99.90
26990;DHT22;14537;47.788;11.858;2023-01-24T15:11:46;0.60;99.90
26990;DHT22;14537;47.788;11.858;2023-01-24T15:18:03;0.60;99.90
26990;DHT22;14537;47.788;11.858;2023-01-24T15:20:33;0.60;99.90
26990;DHT22;14537;47.788;11.858;2023-01-24T15:23:01;0.60;99.90
26990;DHT22;14537;47.788;11.858;2023-01-24T15:25:34;0.40;99.90
26990;DHT22;14537;47.788;11.858;2023-01-24T15:28:38;0.40;99.90
26990;DHT22;14537;47.788;11.858;2023-01-24T15:31:21;0.40;99.90
26990;DHT22;14537;47.788;11.858;2023-01-24T15:33:59;0.30;99.90
26990;DHT22;14537;47.788;11.858;2023-01-24T15:36:30;0.30;99.90
26990;DHT22;14537;47.788;11.858;2023-01-24T15:39:14;0.30;99.90
26990;DHT22;14537;47.788;11.858;2023-01-24T15:41:41;0.30;99.90
26990;DHT22;14537;47.788;11.858;2023-01-24T15:44:27;0.30;99.90
26990;DHT22;14537;47.788;11.858;2023-01-24T15:47:01;0.20;99.90
26990;DHT22;14537;47.788;11.858;2023-01-24T15:50:15;0.20;99.90
26990;DHT22;14537;47.788;11.858;2023-01-24T15:53:35;0.20;99.90
26990;DHT22;14537;47.788;11.858;2023-01-24T15:56:05;0.20;99.90
26990;DHT22;14537;47.788;11.858;2023-01-24T15:58:46;0.10;99.90
26990;DHT22;14537;47.788;11.858;2023-01-24T16:01:13;0.20;99.90
26990;DHT22;14537;47.788;11.858;2023-01-24T16:03:39;0.20;99.90
26990;DHT22;14537;47.788;11.858;2023-01-24T16:06:05;0.20;99.90
26990;DHT22;14537;47.788;11.858;2023-01-24T16:08:31;0.20;99.90
26990;DHT22;14537;47.788;11.858;2023-01-24T16:10:59;0.20;99.90
26990;DHT22;14537;47.788;11.858;2023-01-24T16:15:56;0.10;99.90
26990;DHT22;14537;47.788;11.858;2023-01-24T16:18:22;0.10;99.90
26990;DHT22;14537;47.788;11.858;2023-01-24T16:20:47;0.10;99.90
26990;DHT22;14537;47.788;11.858;2023-01-24T16:23:13;0.00;99.90
26990;DHT22;14537;47.788;11.858;2023-01-24T16:25:39;0.00;99.90
26990;DHT22;14537;47.788;11.858;2023-01-24T16:28:08;0.10;99.90
26990;DHT22;14537;47.788;11.858;2023-01-24T16:30:34;0.10;99.90
26990;DHT22;14537;47.788;11.858;2023-01-24T16:33:00;0.00;99.90
26990;DHT22;14537;47.788;11.858;2023-01-24T16:35:25;0.00;99.90
26990;DHT22;14537;47.788;11.858;2023-01-24T16:37:51;0.10;99.90
26990;DHT22;14537;47.788;11.858;2023-01-24T16:40:17;0.10;99.90
26990;DHT22;14537;47.788;11.858;2023-01-24T16:42:45;0.10;99.90
26990;DHT22;14537;47.788;11.858;2023-01-24T16:45:16;0.10;99.90
26990;DHT22;14537;47.788;11.858;2023-01-24T16:47:49;0.10;99.90
26990;DHT22;14537;47.788;11.858;2023-01-24T16:50:15;0.10;99.90
26990;DHT22;14537;47.788;11.858;2023-01-24T16:52:48;0.00;99.90
26990;DHT22;14537;47.788;11.858;2023-01-24T16:55:14;0.00;99.90
26990;DHT22;14537;47.788;11.858;2023-01-24T16:57:42;0.00;99.90
26990;DHT22;14537;47.788;11.858;2023-01-24T17:00:09;0.00;99.90
26990;DHT22;14537;47.788;11.858;2023-01-24T17:02:43;0.00;99.90
26990;DHT22;14537;47.788;11.858;2023-01-24T17:05:10;0.00;99.90
26990;DHT22;14537;47.788;11.858;2023-01-24T17:07:36;0.10;99.90
26990;DHT22;14537;47.788;11.858;2023-01-24T17:10:09;0.10;99.90
26990;DHT22;14537;47.788;11.858;2023-01-24T17:12:34;0.10;99.90
26990;DHT22;14537;47.788;11.858;2023-01-24T17:15:16;0.10;99.90
26990;DHT22;14537;47.788;11.858;2023-01-24T17:17:48;0.10;99.90
26990;DHT22;14537;47.788;11.858;2023-01-24T17:20:18;0.10;99.90
26990;DHT22;14537;47.788;11.858;2023-01-24T17:22:44;0.10;99.90
26990;DHT22;14537;47.788;11.858;2023-01-24T17:25:10;0.10;99.90
26990;DHT22;14537;47.788;11.858;2023-01-24T17:27:35;0.10;99.90
26990;DHT22;14537;47.788;11.858;2023-01-24T17:30:02;0.10;99.90
26990;DHT22;14537;47.788;11.858;2023-01-24T17:32:33;0.20;99.90
26990;DHT22;14537;47.788;11.858;2023-01-24T17:34:59;0.20;99.90
26990;DHT22;14537;47.788;11.858;2023-01-24T17:37:25;0.20;99.90
26990;DHT22;14537;47.788;11.858;2023-01-24T17:39:52;0.20;99.90
26990;DHT22;14537;47.788;11.858;2023-01-24T17:42:18;0.20;99.90
26990;DHT22;14537;47.788;11.858;2023-01-24T17:44:44;0.20;99.90
26990;DHT22;14537;47.788;11.858;2023-01-24T17:47:09;0.20;99.90
26990;DHT22;14537;47.788;11.858;2023-01-24T17:49:35;0.20;99.90
26990;DHT22;14537;47.788;11.858;2023-01-24T17:52:01;0.20;99.90
26990;DHT22;14537;47.788;11.858;2023-01-24T17:54:27;0.20;99.90
26990;DHT22;14537;47.788;11.858;2023-01-24T17:56:52;0.20;99.90
26990;DHT22;14537;47.788;11.858;2023-01-24T17:59:18;0.20;99.90
26990;DHT22;14537;47.788;11.858;2023-01-24T18:01:44;0.30;99.90
26990;DHT22;14537;47.788;11.858;2023-01-24T18:04:09;0.30;99.90